Home   Weather   India   Virudhunagar   Past weeks
Flag for India

Past Weather in Virudhunagar, Tamil Nadu, India — Yesterday and Last 2 Weeks

Currently: 79 °F. Fog. (Weather station: Tiruchchirapalli, India). See more current weather

Past Weather in Virudhunagar — Graph

°F

Virudhunagar Temperature Yesterday

Maximum temperature yesterday: 88 °F (at 2:00 pm)
Minimum temperature yesterday: 75 °F (at 3:00 am)
Average temperature yesterday: 81 °F

High & Low Weather Summary for the Past Weeks

 TemperatureHumidityPressure
High91 °F (Nov 23, 2:30 pm)100% (Nov 11, 11:30 pm)29.98 "Hg (Nov 11, 11:30 pm)
Low70 °F (Nov 18, 6:30 am)40% (Nov 20, 2:30 pm)29.71 "Hg (Nov 21, 3:30 pm)
Average79 °F78%29.85 "Hg
* Reported Nov 11 5:30 pm — Nov 26 5:30 pm, Virudhunagar. Weather by CustomWeather, © 2022

Note: Actual official high and low records may vary slightly from our data, if they occured in-between our weather recording intervals... More about our weather records

Virudhunagar Weather History for the Previous 24 Hours

Scroll right to see more
 ConditionsComfort  
Time TempWeatherWind HumidityBarometerVisibility
5:30 pm
Sat, Nov 26
81 °FScattered clouds.8 mph74%29.80 "Hg2 mi
5:00 pm86 °FScattered clouds.9 mph66%29.77 "Hg3 mi
4:30 pm88 °FScattered clouds.5 mph66%29.77 "Hg3 mi
4:00 pm88 °FScattered clouds.5 mph62%29.77 "Hg3 mi
3:30 pm88 °FScattered clouds.6 mph66%29.77 "Hg3 mi
3:00 pm88 °FScattered clouds.7 mph66%29.77 "Hg4 mi
2:30 pm88 °FScattered clouds.7 mph66%29.80 "Hg4 mi
2:00 pm90 °FScattered clouds.3 mph63%29.80 "Hg4 mi
1:30 pm90 °FScattered clouds.7 mph59%29.80 "Hg4 mi
1:00 pm90 °FScattered clouds.7 mph55%29.83 "Hg4 mi
12:30 pm90 °FScattered clouds.3 mph59%29.86 "Hg4 mi
11:30 am88 °FScattered clouds.7 mph62%29.89 "Hg3 mi
11:00 am88 °FScattered clouds.6 mph66%29.89 "Hg3 mi
10:30 am86 °FHaze.5 mph70%29.92 "Hg3 mi
10:00 am84 °FScattered clouds.5 mph74%29.92 "Hg2 mi
9:30 am82 °FFog.5 mph79%29.92 "Hg2 mi
9:00 am82 °FFog.6 mph79%29.92 "Hg2 mi
8:30 am81 °FFog.6 mph79%29.92 "Hg1 mi
8:00 am77 °FFog.5 mph94%29.92 "Hg1 mi
7:30 am77 °FFog.5 mph94%29.89 "Hg1 mi
7:00 am75 °FFog.2 mph94%29.89 "Hg1 mi
6:30 am75 °FFog.2 mph89%29.89 "Hg1 mi
5:00 am75 °FFog.3 mph89%29.86 "Hg1 mi
4:30 am75 °FFog.3 mph89%29.83 "Hg1 mi
4:00 am75 °FFog.2 mph89%29.83 "Hg1 mi
3:30 am75 °FFog.2 mph89%29.83 "Hg1 mi
3:00 am77 °FFog.1 mph83%29.86 "Hg1 mi
2:30 am77 °FFog.2 mph89%29.86 "Hg1 mi
1:30 am77 °FFog.3 mph89%29.86 "Hg1 mi
1:00 am77 °FFog.2 mph89%29.89 "Hg1 mi
12:30 am79 °FFog.2 mph89%29.89 "Hg1 mi
12:00 am79 °FFog.2 mph89%29.89 "Hg1 mi
11:30 pm
Fri, Nov 25
79 °FFog.3 mph89%29.92 "Hg1 mi
11:00 pm79 °FFog.No wind84%29.92 "Hg1 mi
10:30 pm79 °FFog.2 mph84%29.92 "Hg1 mi
9:30 pm81 °FFog.3 mph84%29.92 "Hg2 mi
9:00 pm81 °FFog.5 mph84%29.92 "Hg2 mi
8:30 pm81 °FFog.5 mph79%29.89 "Hg2 mi
8:00 pm81 °FFog.5 mph79%29.89 "Hg2 mi
7:30 pm81 °FFog.3 mph79%29.86 "Hg2 mi
7:00 pm81 °FFog.3 mph79%29.86 "Hg2 mi
6:30 pm82 °FPassing clouds.3 mph74%29.86 "Hg2 mi
6:00 pm82 °FScattered clouds.2 mph70%29.83 "Hg2 mi
Weather by CustomWeather, © 2022

See weather overview